Time;durP1;ratioP1;P1;durP2;ratioP2;P2;SDS_P1;SDS_P2;PMS_P1;PMS_P2;Temp;Humidity;BMP_temperature;BMP_pressure;BME280_temperature;BME280_humidity;BME280_pressure;Samples;Min_cycle;Max_cycle;Signal;HPM_P1;HPM_P2
2021/12/14 00:02:18;;;;;;;10.57;4.78;;;;;;;2.26;100.00;95200.25;4920206;29;20052;-84
2021/12/14 00:04:44;;;;;;;8.15;3.97;;;;;;;2.34;100.00;95203.66;4903664;29;20028;-84
2021/12/14 00:07:14;;;;;;;9.32;4.57;;;;;;;2.33;100.00;95200.28;4919113;29;20040;-84
2021/12/14 00:09:41;;;;;;;10.05;4.15;;;;;;;2.41;100.00;95196.72;4902800;29;20452;-84
2021/12/14 00:17:07;;;;;;;6.07;3.20;;;;;;;2.68;100.00;95209.72;4919104;29;20095;-84
2021/12/14 00:19:33;;;;;;;7.03;3.38;;;;;;;2.54;100.00;95208.88;4903483;29;20040;-84
2021/12/14 00:22:17;;;;;;;22.15;8.20;;;;;;;2.35;100.00;95215.59;4903120;29;20044;-84
2021/12/14 00:24:42;;;;;;;7.93;4.00;;;;;;;2.29;100.00;95204.22;4905401;29;20043;-84
2021/12/14 00:27:10;;;;;;;7.63;3.22;;;;;;;2.14;100.00;95201.81;4903129;29;20402;-84
2021/12/14 00:29:42;;;;;;;6.18;2.58;;;;;;;2.03;100.00;95210.91;4919234;29;20036;-84
2021/12/14 00:32:13;;;;;;;4.85;2.78;;;;;;;2.07;100.00;95212.13;4919140;29;20043;-84
2021/12/14 00:34:42;;;;;;;11.43;4.85;;;;;;;2.04;100.00;95207.34;4903680;29;20040;-84
2021/12/14 00:37:10;;;;;;;4.63;2.10;;;;;;;2.08;100.00;95207.72;4920361;29;20043;-84
2021/12/14 00:39:36;;;;;;;4.55;2.22;;;;;;;2.22;100.00;95204.22;4903061;29;20426;-84
2021/12/14 00:42:03;;;;;;;4.45;2.20;;;;;;;2.05;100.00;95197.78;4897697;29;20115;-84
2021/12/14 00:44:29;;;;;;;4.72;2.13;;;;;;;2.45;100.00;95195.31;4903318;29;20040;-84
2021/12/14 00:46:54;;;;;;;4.72;1.98;;;;;;;2.29;100.00;95199.06;4919917;29;20493;-84
2021/12/14 00:49:20;;;;;;;5.53;2.75;;;;;;;2.35;100.00;95193.13;4903623;29;20044;-84
2021/12/14 00:51:47;;;;;;;7.88;2.58;;;;;;;2.47;100.00;95192.56;4903177;29;20127;-84
2021/12/14 00:54:14;;;;;;;4.85;2.80;;;;;;;2.61;100.00;95189.00;4903165;29;20032;-84
2021/12/14 00:56:40;;;;;;;3.28;1.85;;;;;;;2.59;100.00;95192.78;4920110;29;20123;-84
2021/12/14 00:59:07;;;;;;;4.45;1.85;;;;;;;2.54;100.00;95191.56;4900518;29;20028;-84
2021/12/14 01:01:39;;;;;;;7.00;2.22;;;;;;;2.64;100.00;95196.38;4906580;29;20107;-84
2021/12/14 01:04:09;;;;;;;7.28;2.42;;;;;;;2.47;100.00;95195.94;4901694;29;20024;-84
2021/12/14 01:06:37;;;;;;;3.03;1.98;;;;;;;2.45;100.00;95199.72;4922221;29;20032;-84
2021/12/14 01:09:05;;;;;;;3.38;1.90;;;;;;;2.56;100.00;95193.94;4906187;29;20083;-84
2021/12/14 01:11:37;;;;;;;4.55;2.40;;;;;;;2.58;100.00;95193.75;4906081;29;20357;-84
2021/12/14 01:14:31;;;;;;;4.78;2.33;;;;;;;2.82;100.00;95184.63;4922999;29;20075;-84
2021/12/14 01:17:13;;;;;;;4.00;2.03;;;;;;;2.62;100.00;95188.00;4914248;29;20055;-84
2021/12/14 01:19:51;;;;;;;4.13;2.10;;;;;;;2.55;100.00;95189.78;4908007;29;20338;-84
2021/12/14 01:22:44;;;;;;;4.70;2.13;;;;;;;2.60;100.00;95194.38;4903016;29;20042;-84
2021/12/14 01:25:15;;;;;;;4.80;2.20;;;;;;;2.58;100.00;95194.53;4908191;29;20036;-84
2021/12/14 01:27:46;;;;;;;4.80;2.45;;;;;;;2.38;100.00;95199.69;4922861;29;20028;-84
2021/12/14 01:30:20;;;;;;;4.53;2.08;;;;;;;2.32;100.00;95190.94;4901968;29;20345;-84
2021/12/14 01:32:48;;;;;;;4.25;2.05;;;;;;;2.38;100.00;95191.94;4921781;29;20028;-84
2021/12/14 01:35:16;;;;;;;3.17;1.98;;;;;;;2.40;100.00;95193.31;4922772;29;20032;-84
2021/12/14 01:37:48;;;;;;;4.13;2.15;;;;;;;2.73;100.00;95198.78;4905556;29;20031;-84
2021/12/14 01:40:46;;;;;;;5.18;1.85;;;;;;;2.91;100.00;95199.00;4921532;29;20028;-84
2021/12/14 01:43:02;;;;;;;2.88;1.55;;;;;;;2.93;100.00;95196.19;4922056;29;20051;-84
2021/12/14 01:45:28;;;;;;;3.95;1.70;;;;;;;3.07;100.00;95191.81;4922742;29;20028;-84
2021/12/14 01:47:57;;;;;;;3.38;1.67;;;;;;;2.95;100.00;95200.19;4905964;29;20036;-84
2021/12/14 01:50:30;;;;;;;4.18;1.60;;;;;;;2.69;100.00;95193.97;4898203;29;20324;-84
2021/12/14 01:52:58;;;;;;;3.85;1.75;;;;;;;2.48;100.00;95194.16;4889561;29;20044;-84
2021/12/14 01:55:27;;;;;;;3.90;1.80;;;;;;;2.37;100.00;95191.13;4898730;29;20036;-84
2021/12/14 01:57:55;;;;;;;3.67;1.92;;;;;;;2.72;100.00;95192.00;4876678;29;20361;-84
2021/12/14 02:00:27;;;;;;;4.95;1.95;;;;;;;2.97;100.00;95182.66;4921217;29;20118;-84
2021/12/14 02:02:52;;;;;;;3.58;1.83;;;;;;;3.03;100.00;95178.47;4903958;29;20056;-84
2021/12/14 02:05:33;;;;;;;4.03;1.90;;;;;;;3.03;100.00;95181.06;4922389;29;20402;-84
2021/12/14 02:08:00;;;;;;;2.80;1.60;;;;;;;2.89;100.00;95182.88;4902492;29;20064;-84
2021/12/14 02:10:29;;;;;;;3.35;1.20;;;;;;;2.68;100.00;95200.16;4901661;29;20115;-84
2021/12/14 02:12:55;;;;;;;4.18;1.35;;;;;;;2.56;100.00;95191.38;4901686;29;20040;-84
2021/12/14 02:15:26;;;;;;;4.53;1.73;;;;;;;2.53;100.00;95184.00;4886130;29;20056;-84
2021/12/14 02:17:54;;;;;;;3.03;1.80;;;;;;;2.44;100.00;95191.16;4902207;29;20036;-84
2021/12/14 02:20:33;;;;;;;5.32;2.60;;;;;;;2.27;100.00;95190.69;4886487;29;20036;-84
2021/12/14 02:23:00;;;;;;;4.63;1.65;;;;;;;2.29;100.00;95193.88;4870767;29;20442;-84
2021/12/14 02:25:25;;;;;;;3.47;2.00;;;;;;;2.34;100.00;95191.53;4886374;29;20072;-84
2021/12/14 02:27:53;;;;;;;6.00;1.90;;;;;;;2.44;100.00;95187.75;4886462;29;20517;-84
2021/12/14 02:30:23;;;;;;;2.95;1.73;;;;;;;2.71;100.00;95180.84;4886419;29;20043;-84
2021/12/14 02:32:50;;;;;;;2.72;1.30;;;;;;;2.45;100.00;95184.19;4886179;29;20039;-84
2021/12/14 02:35:20;;;;;;;4.32;2.03;;;;;;;2.15;100.00;95177.53;4901722;29;20043;-84
2021/12/14 02:37:53;;;;;;;3.38;1.75;;;;;;;1.95;100.00;95187.78;4886155;29;20172;-84
2021/12/14 02:41:00;;;;;;;2.90;1.55;;;;;;;1.89;100.00;95181.59;4886253;29;20040;-84
2021/12/14 02:43:18;;;;;;;2.78;1.63;;;;;;;2.05;100.00;95180.50;4900319;29;20037;-84
2021/12/14 02:45:44;;;;;;;3.08;1.83;;;;;;;2.08;100.00;95171.53;4901657;29;20450;-84
2021/12/14 02:48:10;;;;;;;3.60;2.00;;;;;;;2.40;100.00;95182.97;4886012;29;20047;-84
2021/12/14 02:50:35;;;;;;;4.82;2.30;;;;;;;2.44;100.00;95172.22;4902703;29;20131;-84
2021/12/14 02:53:01;;;;;;;4.53;2.10;;;;;;;2.44;100.00;95177.41;4885564;29;20111;-84
2021/12/14 02:55:27;;;;;;;3.80;1.63;;;;;;;2.43;100.00;95178.41;4885844;29;20131;-84
2021/12/14 02:57:55;;;;;;;5.20;1.70;;;;;;;2.59;100.00;95172.06;4885425;29;20354;-84
2021/12/14 03:00:24;;;;;;;3.30;1.60;;;;;;;2.63;100.00;95173.25;4885787;29;20040;-84
2021/12/14 03:02:50;;;;;;;4.43;1.98;;;;;;;2.59;100.00;95178.06;4885278;29;20033;-83
2021/12/14 03:05:20;;;;;;;3.40;1.60;;;;;;;2.45;100.00;95171.25;4885443;29;20032;-84
2021/12/14 03:07:50;;;;;;;4.45;0.90;;;;;;;2.33;100.00;95176.19;4885739;29;20052;-84
2021/12/14 03:13:10;;;;;;;3.72;1.55;;;;;;;2.47;100.00;95169.28;4863921;29;20354;-84
2021/12/14 03:15:48;;;;;;;2.20;1.20;;;;;;;2.25;100.00;95162.47;4885450;29;20068;-84
2021/12/14 03:18:17;;;;;;;2.47;1.27;;;;;;;2.46;100.00;95157.34;4870578;29;20517;-84
2021/12/14 03:20:53;;;;;;;2.22;1.33;;;;;;;2.39;100.00;95160.69;4900666;29;20028;-84
2021/12/14 03:23:29;;;;;;;3.28;1.35;;;;;;;2.30;100.00;95167.06;4885315;29;20036;-84
2021/12/14 03:25:56;;;;;;;3.17;1.30;;;;;;;2.15;100.00;95169.78;4900753;29;20084;-84
2021/12/14 03:28:24;;;;;;;1.95;1.30;;;;;;;2.05;100.00;95161.59;4885280;29;20092;-84
2021/12/14 03:31:09;;;;;;;2.30;1.20;;;;;;;2.02;100.00;95167.16;4885323;29;20342;-84
2021/12/14 03:33:43;;;;;;;2.05;0.85;;;;;;;2.21;100.00;95166.41;4885146;29;20406;-84
2021/12/14 03:36:17;;;;;;;2.60;1.48;;;;;;;2.53;100.00;95168.47;4885668;29;20041;-84
2021/12/14 03:38:46;;;;;;;2.75;1.10;;;;;;;2.40;100.00;95166.69;4885403;29;20127;-84
2021/12/14 03:41:25;;;;;;;3.00;1.50;;;;;;;2.29;100.00;95175.00;4902203;29;20043;-84
2021/12/14 03:44:09;;;;;;;3.00;1.35;;;;;;;2.13;100.00;95179.53;4885183;29;20473;-84
2021/12/14 03:46:53;;;;;;;2.63;1.35;;;;;;;2.31;100.00;95186.75;4901853;29;20036;-84
2021/12/14 03:49:21;;;;;;;3.58;1.27;;;;;;;2.47;100.00;95179.63;4900756;29;20044;-84
2021/12/14 03:51:46;;;;;;;1.13;0.93;;;;;;;2.54;100.00;95181.22;4884980;29;20041;-84
2021/12/14 03:54:15;;;;;;;3.05;1.30;;;;;;;2.32;100.00;95183.16;4901693;29;20099;-84
2021/12/14 03:56:42;;;;;;;2.08;1.02;;;;;;;2.11;100.00;95178.94;4885383;29;20052;-84
2021/12/14 03:59:13;;;;;;;1.90;1.17;;;;;;;2.30;100.00;95176.59;4885085;29;20122;-84
2021/12/14 04:01:41;;;;;;;2.20;1.13;;;;;;;2.21;100.00;95178.56;4901551;29;20450;-84
2021/12/14 04:04:16;;;;;;;3.42;1.20;;;;;;;2.56;100.00;95182.81;4884754;29;20430;-84
2021/12/14 04:06:46;;;;;;;1.90;1.00;;;;;;;2.22;100.00;95182.72;4901708;29;20040;-84
2021/12/14 04:09:14;;;;;;;3.03;1.17;;;;;;;2.25;100.00;95177.97;4892347;29;20470;-84
2021/12/14 04:11:41;;;;;;;2.25;1.05;;;;;;;2.48;100.00;95191.56;4893537;29;20036;-84
2021/12/14 04:14:07;;;;;;;4.53;1.30;;;;;;;2.41;100.00;95186.38;4917156;29;20032;-84
2021/12/14 04:16:35;;;;;;;2.20;1.25;;;;;;;2.56;100.00;95188.00;4896568;29;20028;-84
2021/12/14 04:19:05;;;;;;;3.20;1.40;;;;;;;2.36;100.00;95181.78;4907078;29;20127;-84
2021/12/14 04:21:34;;;;;;;2.50;1.02;;;;;;;2.17;100.00;95190.28;4884376;29;20493;-84
2021/12/14 04:23:59;;;;;;;3.55;1.17;;;;;;;2.34;100.00;95195.88;4901277;29;20183;-84
2021/12/14 04:26:27;;;;;;;2.17;1.23;;;;;;;2.31;100.00;95186.75;4884494;29;20119;-84
2021/12/14 04:28:55;;;;;;;6.40;1.40;;;;;;;2.26;100.00;95194.28;4884730;29;20040;-84
2021/12/14 04:31:21;;;;;;;2.72;1.50;;;;;;;2.26;100.00;95196.84;4899842;29;20036;-84
2021/12/14 04:33:48;;;;;;;3.13;1.27;;;;;;;2.33;100.00;95208.03;4903533;29;20059;-84
2021/12/14 04:36:20;;;;;;;2.28;1.30;;;;;;;2.34;100.00;95211.41;4903566;29;20119;-84
2021/12/14 04:39:28;;;;;;;8.50;2.88;;;;;;;2.66;100.00;95214.28;4904306;29;20047;-84
2021/12/14 04:52:38;;;;;;;3.72;1.70;;;;;;;2.08;100.00;95215.47;4890279;29;20139;-84
2021/12/14 04:55:08;;;;;;;2.83;1.55;;;;;;;2.21;100.00;95214.75;4904782;29;20347;-84
2021/12/14 04:57:43;;;;;;;2.50;1.27;;;;;;;2.34;100.00;95216.56;4887706;29;20035;-84
2021/12/14 05:00:38;;;;;;;2.22;1.40;;;;;;;2.34;100.00;95214.81;4888197;29;20048;-84
2021/12/14 05:03:14;;;;;;;4.20;1.75;;;;;;;2.08;100.00;95223.22;4903439;29;20096;-84
2021/12/14 05:05:44;;;;;;;4.07;1.60;;;;;;;1.96;100.00;95217.81;4908196;29;20063;-84
2021/12/14 05:10:57;;;;;;;2.83;1.52;;;;;;;1.67;100.00;95212.72;4901666;29;20035;-84
2021/12/14 05:13:25;;;;;;;5.30;1.70;;;;;;;1.68;100.00;95218.66;4906409;29;20039;-84
2021/12/14 05:15:51;;;;;;;2.90;1.58;;;;;;;1.60;100.00;95221.41;4905951;29;20035;-84
2021/12/14 05:18:16;;;;;;;3.47;1.55;;;;;;;1.72;100.00;95227.63;4906419;29;20027;-84
2021/12/14 05:20:44;;;;;;;4.60;1.77;;;;;;;1.59;100.00;95225.78;4906043;29;20031;-84
2021/12/14 05:23:10;;;;;;;10.93;3.78;;;;;;;1.53;100.00;95223.94;4905818;29;20059;-84
2021/12/14 05:25:37;;;;;;;2.13;1.27;;;;;;;1.59;100.00;95233.53;4902893;29;20024;-84
2021/12/14 05:28:04;;;;;;;4.15;1.80;;;;;;;1.65;100.00;95229.38;4916572;29;20032;-84
2021/12/14 05:30:38;;;;;;;3.55;1.80;;;;;;;1.61;100.00;95228.19;4921670;29;20438;-84
2021/12/14 05:33:06;;;;;;;3.53;1.80;;;;;;;1.63;100.00;95233.94;4900601;29;20031;-84
2021/12/14 05:35:32;;;;;;;4.50;1.63;;;;;;;1.59;100.00;95240.50;4921715;29;20032;-84
2021/12/14 05:37:59;;;;;;;2.47;1.73;;;;;;;1.60;100.00;95237.69;4915572;29;20050;-84
2021/12/14 05:43:07;;;;;;;3.78;1.77;;;;;;;1.94;100.00;95245.66;4906944;29;20063;-84
2021/12/14 05:45:42;;;;;;;4.63;1.90;;;;;;;1.82;100.00;95246.19;4919071;29;20036;-84
2021/12/14 05:48:11;;;;;;;5.43;2.00;;;;;;;1.81;100.00;95244.59;4916828;29;20065;-84
2021/12/14 05:50:42;;;;;;;4.40;1.98;;;;;;;1.83;100.00;95252.94;4922655;29;20462;-84
2021/12/14 05:53:09;;;;;;;5.72;2.22;;;;;;;1.86;100.00;95246.59;4905329;29;20353;-83
2021/12/14 05:55:39;;;;;;;2.50;1.38;;;;;;;1.67;100.00;95246.31;4905170;29;20042;-83
2021/12/14 05:58:12;;;;;;;6.07;2.97;;;;;;;1.60;100.00;95258.34;4911217;29;20451;-83
2021/12/14 06:00:40;;;;;;;5.53;2.37;;;;;;;1.51;100.00;95249.97;4902473;29;20044;-84
2021/12/14 06:03:05;;;;;;;2.50;1.85;;;;;;;1.45;100.00;95248.13;4871427;29;20040;-83
2021/12/14 06:05:31;;;;;;;5.35;2.22;;;;;;;1.43;100.00;95252.66;4886509;29;20442;-83
2021/12/14 06:07:57;;;;;;;2.78;1.90;;;;;;;1.43;100.00;95252.66;4914573;29;20467;-83
2021/12/14 06:10:26;;;;;;;3.78;1.90;;;;;;;1.61;100.00;95248.84;4905103;29;20040;-83
2021/12/14 06:12:52;;;;;;;3.28;1.42;;;;;;;1.60;100.00;95255.00;4904967;29;20035;-83
2021/12/14 06:15:25;;;;;;;4.75;2.10;;;;;;;1.76;100.00;95251.31;4903725;29;20044;-83
2021/12/14 06:17:50;;;;;;;3.15;1.92;;;;;;;1.47;100.00;95253.09;4905557;29;20032;-83
2021/12/14 06:20:25;;;;;;;3.72;1.98;;;;;;;1.43;100.00;95246.72;4904985;29;20438;-83
2021/12/14 06:22:52;;;;;;;2.35;1.48;;;;;;;1.45;100.00;95250.72;4905190;29;20039;-83
2021/12/14 06:25:22;;;;;;;3.35;1.77;;;;;;;1.62;100.00;95253.03;4905245;29;20036;-83
2021/12/14 06:27:48;;;;;;;4.13;1.98;;;;;;;2.01;100.00;95251.66;4905356;29;20038;-83
2021/12/14 06:30:20;;;;;;;3.72;1.67;;;;;;;1.89;100.00;95253.19;4920868;29;20064;-83
2021/12/14 06:32:56;;;;;;;5.13;2.28;;;;;;;1.91;100.00;95248.63;4921858;29;20036;-83
2021/12/14 06:35:35;;;;;;;3.03;1.80;;;;;;;2.11;100.00;95253.91;4921507;29;20476;-83
2021/12/14 06:40:45;;;;;;;3.40;2.28;;;;;;;1.98;100.00;95250.25;4922065;29;20028;-83
2021/12/14 06:43:16;;;;;;;3.15;1.70;;;;;;;1.76;100.00;95243.56;4921325;29;20056;-83
2021/12/14 06:45:51;;;;;;;3.08;1.70;;;;;;;1.66;100.00;95246.47;4904689;29;20425;-83
2021/12/14 06:48:20;;;;;;;3.53;1.80;;;;;;;1.61;100.00;95248.84;4921583;29;20039;-84
2021/12/14 06:50:54;;;;;;;5.22;2.15;;;;;;;1.83;100.00;95247.78;4921629;29;20087;-83
2021/12/14 06:53:21;;;;;;;4.38;1.75;;;;;;;1.70;100.00;95247.69;4921404;29;20036;-83
2021/12/14 06:55:50;;;;;;;3.97;1.85;;;;;;;1.67;100.00;95256.63;4919478;29;20357;-83
2021/12/14 06:58:19;;;;;;;4.40;1.80;;;;;;;1.62;100.00;95255.59;4921500;29;20060;-83
2021/12/14 07:01:12;;;;;;;3.17;1.92;;;;;;;1.68;100.00;95254.84;4904355;29;20055;-84
2021/12/14 07:03:47;;;;;;;3.40;1.80;;;;;;;1.78;100.00;95264.81;4903978;29;20039;-83
2021/12/14 07:06:30;;;;;;;3.67;1.75;;;;;;;1.88;100.00;95265.28;4921418;29;20067;-84
2021/12/14 07:09:11;;;;;;;3.72;1.63;;;;;;;1.89;100.00;95260.94;4904370;29;20035;-83
2021/12/14 07:11:37;;;;;;;5.03;2.10;;;;;;;1.92;100.00;95270.88;4904067;29;20115;-83
2021/12/14 07:14:11;;;;;;;7.45;1.90;;;;;;;1.99;100.00;95266.53;4903930;29;20036;-83
2021/12/14 07:16:39;;;;;;;;;;;;;;;2.11;100.00;95275.34;4888957;29;20032;-83
2021/12/14 07:19:05;;;;;;;3.45;2.05;;;;;;;2.23;100.00;95277.41;4885824;29;19915;-83
2021/12/14 07:21:43;;;;;;;3.95;1.70;;;;;;;2.23;100.00;95272.25;4902467;29;20055;-83
2021/12/14 07:24:31;;;;;;;2.28;1.45;;;;;;;2.41;100.00;95269.13;4919685;29;20040;-83
2021/12/14 07:27:29;;;;;;;3.67;1.63;;;;;;;2.45;100.00;95267.75;4903184;29;20063;-83
2021/12/14 07:30:11;;;;;;;7.72;2.40;;;;;;;2.55;100.00;95272.56;4906289;29;20048;-83
2021/12/14 07:32:50;;;;;;;8.30;3.40;;;;;;;2.70;100.00;95272.41;4900245;29;20460;-83
2021/12/14 07:35:32;;;;;;;5.47;2.35;;;;;;;2.82;100.00;95270.88;4900510;29;20354;-83
2021/12/14 07:38:30;;;;;;;6.10;2.28;;;;;;;2.82;100.00;95281.22;4900729;29;20040;-84
2021/12/14 07:41:31;;;;;;;4.90;2.35;;;;;;;2.90;100.00;95275.06;4901600;29;20033;-83
2021/12/14 07:44:05;;;;;;;21.15;5.25;;;;;;;2.95;100.00;95283.03;4850712;29;20095;-84
2021/12/14 07:46:41;;;;;;;5.55;2.45;;;;;;;3.02;100.00;95277.06;4885139;29;20394;-83
2021/12/14 07:49:26;;;;;;;5.05;2.17;;;;;;;3.01;100.00;95281.44;4885063;29;20037;-83
2021/12/14 07:51:56;;;;;;;8.15;2.63;;;;;;;3.04;100.00;95277.66;4884910;29;20068;-84
2021/12/14 07:54:26;;;;;;;7.50;3.30;;;;;;;3.15;100.00;95278.88;4885032;29;20036;-83
2021/12/14 07:57:01;;;;;;;7.88;2.03;;;;;;;3.37;100.00;95271.72;4884808;29;20064;-83
2021/12/14 07:59:40;;;;;;;4.53;1.77;;;;;;;3.47;100.00;95279.09;4884777;29;20025;-83
2021/12/14 08:02:16;;;;;;;3.83;1.70;;;;;;;3.62;100.00;95278.91;4884608;29;20033;-83
2021/12/14 08:05:05;;;;;;;7.75;3.10;;;;;;;3.55;100.00;95278.91;4901730;29;20341;-83
2021/12/14 08:07:40;;;;;;;4.00;1.85;;;;;;;3.53;100.00;95278.31;4885219;29;20096;-83
2021/12/14 08:10:17;;;;;;;4.38;2.10;;;;;;;3.65;100.00;95278.50;4888641;29;20037;-83
2021/12/14 08:12:46;;;;;;;5.63;1.95;;;;;;;3.54;100.00;95278.09;4888762;29;20040;-83
2021/12/14 08:15:29;;;;;;;2.63;1.42;;;;;;;3.60;100.00;95270.53;4905338;29;20497;-83
2021/12/14 08:18:06;;;;;;;3.80;2.20;;;;;;;3.67;100.00;95273.91;4905516;29;20465;-83
2021/12/14 08:20:33;;;;;;;2.92;1.73;;;;;;;3.70;100.00;95278.69;4905480;29;20049;-83
2021/12/14 08:23:14;;;;;;;6.88;2.47;;;;;;;3.71;100.00;95275.09;4888521;29;20033;-83
2021/12/14 08:25:40;;;;;;;4.55;2.10;;;;;;;3.67;100.00;95282.47;4872915;29;20435;-83
2021/12/14 08:28:07;;;;;;;3.83;1.90;;;;;;;3.76;100.00;95277.06;4905308;29;20358;-83
2021/12/14 08:30:34;;;;;;;4.63;2.03;;;;;;;3.72;100.00;95279.25;4888589;29;20036;-83
2021/12/14 08:33:00;;;;;;;4.53;2.30;;;;;;;3.70;100.00;95286.44;4872683;29;20029;-83
2021/12/14 08:35:26;;;;;;;6.22;2.40;;;;;;;3.69;100.00;95282.25;4888371;29;20457;-83
2021/12/14 08:37:57;;;;;;;3.58;1.75;;;;;;;3.76;100.00;95280.47;4888059;29;20066;-83
2021/12/14 08:40:27;;;;;;;5.00;2.35;;;;;;;3.78;100.00;95282.84;4888826;29;20048;-83
2021/12/14 08:43:21;;;;;;;4.88;2.65;;;;;;;3.80;100.00;95286.03;4888150;29;20075;-84
2021/12/14 08:45:57;;;;;;;4.38;2.45;;;;;;;3.88;100.00;95290.25;4889361;29;20037;-83
2021/12/14 08:48:33;;;;;;;5.20;2.53;;;;;;;4.01;100.00;95282.41;4872852;29;20493;-83
2021/12/14 08:51:13;;;;;;;3.78;1.88;;;;;;;4.03;100.00;95290.00;4904910;29;20039;-83
2021/12/14 08:53:40;;;;;;;3.70;1.83;;;;;;;4.06;100.00;95274.84;4888968;29;20055;-83
2021/12/14 08:56:08;;;;;;;2.95;1.70;;;;;;;4.27;100.00;95285.94;4887647;29;20066;-83
2021/12/14 08:58:34;;;;;;;5.50;2.40;;;;;;;4.31;100.00;95289.75;4887738;29;20088;-83
2021/12/14 09:01:08;;;;;;;4.50;2.17;;;;;;;4.35;100.00;95288.31;4872402;29;20036;-83
2021/12/14 09:03:39;;;;;;;4.20;2.17;;;;;;;4.40;100.00;95292.91;4888150;29;20462;-83
2021/12/14 09:06:08;;;;;;;3.33;2.15;;;;;;;4.43;100.00;95292.50;4888176;29;20048;-83
2021/12/14 09:08:34;;;;;;;4.18;2.05;;;;;;;4.57;100.00;95295.03;4904604;29;20040;-84
2021/12/14 09:11:01;;;;;;;3.53;2.00;;;;;;;4.63;100.00;95289.81;4904568;29;20351;-84
2021/12/14 09:13:27;;;;;;;3.80;1.85;;;;;;;4.67;100.00;95285.03;4887734;29;20064;-83
2021/12/14 09:15:58;;;;;;;4.93;2.13;;;;;;;4.87;100.00;95294.50;4871812;29;20112;-83
2021/12/14 09:18:26;;;;;;;4.18;1.67;;;;;;;4.93;100.00;95288.47;4904179;29;20040;-83
2021/12/14 09:20:59;;;;;;;2.50;1.40;;;;;;;4.99;100.00;95292.03;4904116;29;20035;-83
2021/12/14 09:23:30;;;;;;;3.47;1.88;;;;;;;4.98;100.00;95299.03;4871916;29;20037;-83
2021/12/14 09:25:56;;;;;;;3.17;1.65;;;;;;;5.14;100.00;95302.16;4887383;29;20024;-83
2021/12/14 09:28:22;;;;;;;2.55;1.52;;;;;;;5.24;100.00;95300.66;4887453;29;20439;-83
2021/12/14 09:30:56;;;;;;;3.13;1.50;;;;;;;5.23;100.00;95299.09;4871977;29;20036;-83
2021/12/14 09:33:24;;;;;;;3.30;1.45;;;;;;;5.36;100.00;95295.59;4871702;29;20056;-84
2021/12/14 09:35:50;;;;;;;3.83;1.70;;;;;;;5.47;100.00;95295.91;4904013;29;20040;-83
2021/12/14 09:38:18;;;;;;;3.92;1.58;;;;;;;5.37;100.00;95291.19;4887284;29;20036;-83
2021/12/14 09:40:55;;;;;;;2.72;1.40;;;;;;;5.32;100.00;95288.44;4887452;29;20119;-84
2021/12/14 09:43:21;;;;;;;3.90;1.60;;;;;;;5.48;100.00;95295.72;4871596;29;20036;-83
2021/12/14 09:45:52;;;;;;;1.80;1.27;;;;;;;5.49;100.00;95289.50;4903942;29;20386;-83
2021/12/14 09:48:22;;;;;;;2.58;1.52;;;;;;;5.55;100.00;95277.47;4903680;29;20033;-83
2021/12/14 09:50:49;;;;;;;2.47;1.58;;;;;;;5.60;100.00;95276.84;4896490;29;20044;-83
2021/12/14 09:53:18;;;;;;;5.95;1.60;;;;;;;5.76;100.00;95265.88;4886761;29;20059;-83
2021/12/14 09:55:45;;;;;;;2.15;1.40;;;;;;;5.81;100.00;95273.06;4887006;29;20107;-83
2021/12/14 09:58:22;;;;;;;2.42;1.33;;;;;;;5.96;100.00;95269.31;4886961;29;20350;-83
2021/12/14 10:01:02;;;;;;;4.13;1.80;;;;;;;5.93;100.00;95262.72;4879453;29;20331;-83
2021/12/14 10:03:28;;;;;;;2.20;1.30;;;;;;;6.00;100.00;95260.06;4903319;29;20036;-83
2021/12/14 10:06:00;;;;;;;2.85;1.42;;;;;;;5.99;100.00;95259.25;4886617;29;20083;-83
2021/12/14 10:08:33;;;;;;;2.00;1.27;;;;;;;6.04;100.00;95256.03;4886452;29;20084;-83
2021/12/14 10:11:04;;;;;;;5.50;2.08;;;;;;;6.12;100.00;95252.34;4886742;29;20036;-83
2021/12/14 10:13:31;;;;;;;2.25;1.30;;;;;;;6.18;95.24;95254.88;4903384;29;20040;-83
2021/12/14 10:15:58;;;;;;;2.75;1.40;;;;;;;6.24;93.59;95245.41;4886484;29;20131;-83
2021/12/14 10:18:33;;;;;;;4.20;1.50;;;;;;;6.23;100.00;95247.22;4886651;29;20044;-83
2021/12/14 10:21:04;;;;;;;2.33;1.42;;;;;;;6.12;95.96;95245.38;4903088;29;20387;-83
2021/12/14 10:23:32;;;;;;;7.47;1.23;;;;;;;6.14;100.00;95239.91;4902911;29;20037;-83
2021/12/14 10:25:58;;;;;;;4.70;1.20;;;;;;;6.26;100.00;95247.81;4886524;29;20064;-83
2021/12/14 10:28:26;;;;;;;2.45;1.25;;;;;;;6.26;96.18;95248.59;4886429;29;20135;-83
2021/12/14 10:30:59;;;;;;;3.65;1.58;;;;;;;6.33;100.00;95246.72;4885764;29;20040;-83
2021/12/14 10:33:26;;;;;;;2.95;1.40;;;;;;;6.35;100.00;95239.50;4870414;29;20035;-83
2021/12/14 10:36:04;;;;;;;2.72;1.50;;;;;;;6.34;100.00;95234.50;4870695;29;20036;-83
2021/12/14 10:38:40;;;;;;;3.42;1.48;;;;;;;6.55;94.43;95243.66;4870906;29;20470;-83
2021/12/14 10:43:55;;;;;;;2.38;1.25;;;;;;;6.64;100.00;95241.53;4882195;29;20087;-83
2021/12/14 10:46:25;;;;;;;2.38;1.50;;;;;;;6.72;100.00;95240.44;4885831;29;20115;-83
2021/12/14 10:48:52;;;;;;;2.30;1.20;;;;;;;6.90;98.18;95229.19;4886086;29;20390;-83
2021/12/14 10:51:20;;;;;;;2.60;1.23;;;;;;;6.83;97.10;95226.66;4885995;29;20040;-83
2021/12/14 10:53:47;;;;;;;2.90;1.48;;;;;;;6.92;97.44;95232.34;4885911;29;20048;-83
2021/12/14 10:56:17;;;;;;;2.17;1.30;;;;;;;6.87;100.00;95230.41;4885600;29;20043;-83
2021/12/14 10:58:46;;;;;;;1.73;1.10;;;;;;;7.10;98.94;95233.28;4902851;29;20040;-83
2021/12/14 11:01:16;;;;;;;2.60;1.30;;;;;;;6.99;98.86;95225.25;4885850;29;20382;-83
2021/12/14 11:03:46;;;;;;;2.53;1.42;;;;;;;7.13;100.00;95230.25;4885325;29;20040;-83
2021/12/14 11:06:16;;;;;;;3.08;1.70;;;;;;;7.17;100.00;95232.19;4870238;29;20459;-83
2021/12/14 11:08:51;;;;;;;2.97;1.45;;;;;;;7.25;100.00;95225.06;4885492;29;20051;-83
2021/12/14 11:11:28;;;;;;;4.03;1.55;;;;;;;7.52;100.00;95222.03;4870866;29;20037;-83
2021/12/14 11:13:55;;;;;;;2.85;1.70;;;;;;;7.56;100.00;95223.97;4879062;29;20040;-83
2021/12/14 11:18:07;;;;;;;4.28;1.73;;;;;;;7.55;94.92;95230.19;4900964;29;20072;-83
2021/12/14 11:19:13;;;;;;;3.30;1.60;;;;;;;7.60;97.21;95224.28;4887860;29;20048;-83
2021/12/14 11:21:39;;;;;;;3.55;1.63;;;;;;;7.63;97.37;95234.28;4885388;29;20040;-83
2021/12/14 11:24:04;;;;;;;2.42;1.48;;;;;;;7.75;99.27;95232.47;4902151;29;20088;-83
2021/12/14 11:26:35;;;;;;;4.90;1.60;;;;;;;7.79;97.68;95232.78;4902148;29;20438;-83
2021/12/14 11:29:09;;;;;;;2.17;1.52;;;;;;;8.00;99.60;95230.63;4885730;29;20331;-84
2021/12/14 11:31:35;;;;;;;4.60;1.67;;;;;;;8.03;98.11;95235.38;4885639;29;20043;-83
2021/12/14 11:34:04;;;;;;;6.95;1.77;;;;;;;8.32;100.00;95231.03;4910635;29;20122;-84
2021/12/14 11:36:42;;;;;;;3.33;1.90;;;;;;;8.34;99.84;95225.56;4885008;29;20092;-84
2021/12/14 11:39:10;;;;;;;4.07;1.90;;;;;;;8.34;100.00;95226.38;4888316;29;20040;-83
2021/12/14 11:41:59;;;;;;;3.95;1.60;;;;;;;8.33;100.00;95227.41;4885150;29;20092;-84
2021/12/14 11:44:28;;;;;;;5.57;2.20;;;;;;;8.29;100.00;95223.63;4884840;29;20028;-84
2021/12/14 11:46:58;;;;;;;5.63;2.28;;;;;;;8.23;100.00;95229.00;4884861;29;20084;-84
2021/12/14 11:49:52;;;;;;;5.57;2.40;;;;;;;8.25;100.00;95226.94;4901870;29;20047;-84
2021/12/14 11:52:50;;;;;;;5.18;2.70;;;;;;;8.29;100.00;95226.25;4901481;29;20130;-84
2021/12/14 11:55:23;;;;;;;4.70;2.17;;;;;;;8.27;100.00;95219.69;4885508;29;20032;-84
2021/12/14 11:58:00;;;;;;;7.22;2.25;;;;;;;8.34;100.00;95212.50;4901504;29;20032;-84
2021/12/14 12:00:26;;;;;;;6.18;2.70;;;;;;;8.24;100.00;95213.09;4885014;29;20032;-84
2021/12/14 12:02:51;;;;;;;4.13;2.30;;;;;;;8.27;100.00;95214.47;4884682;29;20446;-84
2021/12/14 12:05:23;;;;;;;4.90;2.65;;;;;;;8.39;100.00;95207.38;4885075;29;20028;-84
2021/12/14 12:10:47;;;;;;;9.13;2.25;;;;;;;8.51;99.75;95204.78;4887177;29;20031;-84
2021/12/14 12:13:14;;;;;;;4.78;2.72;;;;;;;8.61;100.00;95210.19;4869425;29;20127;-84
2021/12/14 12:15:43;;;;;;;13.18;2.50;;;;;;;8.62;100.00;95203.13;4884437;29;20043;-84
2021/12/14 12:18:10;;;;;;;4.95;2.28;;;;;;;8.65;100.00;95201.88;4896222;29;20353;-84
2021/12/14 12:20:40;;;;;;;5.13;2.10;;;;;;;8.67;100.00;95194.59;4903261;29;20024;-84
2021/12/14 12:23:07;;;;;;;5.38;2.30;;;;;;;8.71;97.28;95200.94;4903502;29;20044;-84
2021/12/14 12:25:53;;;;;;;4.72;1.85;;;;;;;8.76;100.00;95198.44;4887807;29;20029;-84
2021/12/14 12:28:37;;;;;;;4.25;2.30;;;;;;;8.83;97.52;95193.06;4903819;29;20087;-84